createdAt,value
2022-11-08T00:00:12.588Z,201.93
2022-11-08T00:02:39.618Z,192.53
2022-11-08T00:05:25.520Z,201.67
2022-11-08T00:08:10.827Z,195.87
2022-11-08T00:10:55.983Z,195.43
2022-11-08T00:13:41.280Z,191.27
2022-11-08T00:16:08.193Z,202.60
2022-11-08T00:18:35.095Z,196.40
2022-11-08T00:21:03.326Z,191.93
2022-11-08T00:23:30.514Z,198.07
2022-11-08T00:25:57.642Z,201.27
2022-11-08T00:28:24.590Z,199.63
2022-11-08T00:30:51.513Z,191.20
2022-11-08T00:33:18.474Z,202.13
2022-11-08T00:35:45.315Z,207.10
2022-11-08T00:38:12.201Z,195.97
2022-11-08T00:40:39.068Z,194.97
2022-11-08T00:43:06.001Z,202.17
2022-11-08T00:45:32.884Z,194.40
2022-11-08T00:47:59.823Z,198.70
2022-11-08T00:50:26.704Z,203.60
2022-11-08T00:52:53.594Z,199.87
2022-11-08T00:55:20.476Z,194.53
2022-11-08T00:57:58.964Z,189.70
2022-11-08T01:00:27.701Z,203.53
2022-11-08T01:03:14.663Z,202.30
2022-11-08T01:05:41.799Z,199.63
2022-11-08T01:08:09.334Z,198.23
2022-11-08T01:10:36.791Z,202.13
2022-11-08T01:13:03.850Z,199.07
2022-11-08T01:15:36.518Z,197.50
2022-11-08T01:18:04.523Z,197.33
2022-11-08T01:20:31.436Z,194.20
2022-11-08T01:22:58.462Z,205.13
2022-11-08T01:25:25.725Z,203.47
2022-11-08T01:27:52.591Z,191.93
2022-11-08T01:30:19.659Z,199.13
2022-11-08T01:32:46.606Z,207.90
2022-11-08T01:35:13.466Z,201.23
2022-11-08T01:37:40.381Z,204.17
2022-11-08T01:40:08.341Z,195.50
2022-11-08T01:42:35.267Z,206.10
2022-11-08T01:45:06.994Z,196.47
2022-11-08T01:47:34.011Z,201.73
2022-11-08T01:50:06.454Z,199.97
2022-11-08T01:52:36.337Z,203.87
2022-11-08T01:55:20.535Z,198.93
2022-11-08T01:58:15.882Z,200.30
2022-11-08T02:00:43.514Z,189.83
2022-11-08T02:03:14.551Z,201.33
2022-11-08T02:05:41.569Z,204.93
2022-11-08T02:08:26.701Z,200.83
2022-11-08T02:10:54.281Z,205.37
2022-11-08T02:13:25.490Z,199.57
2022-11-08T02:15:52.792Z,197.13
2022-11-08T02:18:25.384Z,206.77
2022-11-08T02:21:14.006Z,200.50
2022-11-08T02:23:57.761Z,198.97
2022-11-08T02:26:29.900Z,198.40
2022-11-08T02:28:57.189Z,198.97
2022-11-08T02:31:24.105Z,200.47
2022-11-08T02:33:51.432Z,197.43
2022-11-08T02:36:24.672Z,194.27
2022-11-08T02:38:57.713Z,198.47
2022-11-08T02:41:24.622Z,198.77
2022-11-08T02:43:51.507Z,201.73
2022-11-08T02:46:18.559Z,204.37
2022-11-08T02:48:45.906Z,210.73
2022-11-08T02:51:12.794Z,193.57
2022-11-08T02:53:39.747Z,205.73
2022-11-08T02:56:06.825Z,201.60
2022-11-08T02:58:33.782Z,207.40
2022-11-08T03:01:00.667Z,197.67
2022-11-08T03:03:27.618Z,200.13
2022-11-08T03:05:57.032Z,198.03
2022-11-08T03:08:23.942Z,199.87
2022-11-08T03:10:50.849Z,198.30
2022-11-08T03:13:17.754Z,194.90
2022-11-08T03:15:44.624Z,194.03
2022-11-08T03:18:11.544Z,203.27
2022-11-08T03:20:38.429Z,198.53
2022-11-08T03:23:06.747Z,198.53
2022-11-08T03:25:34.495Z,208.17
2022-11-08T03:28:06.725Z,200.13
2022-11-08T03:30:35.103Z,205.63
2022-11-08T03:33:02.358Z,200.13
2022-11-08T03:35:29.422Z,203.10
2022-11-08T03:37:57.438Z,200.73
2022-11-08T03:40:25.169Z,197.93
2022-11-08T03:42:52.098Z,199.87
2022-11-08T03:45:19.004Z,206.40
2022-11-08T03:47:47.378Z,207.93
2022-11-08T03:50:16.385Z,197.47
2022-11-08T03:52:52.384Z,209.37
2022-11-08T03:55:22.459Z,198.93
2022-11-08T03:57:50.463Z,193.70
2022-11-08T04:00:24.558Z,207.20
2022-11-08T04:02:55.096Z,199.27
2022-11-08T04:05:22.273Z,201.27
2022-11-08T04:07:49.293Z,195.83
2022-11-08T04:10:17.959Z,207.87
2022-11-08T04:13:03.248Z,197.87
2022-11-08T04:15:31.681Z,206.10
2022-11-08T04:18:17.949Z,207.43
2022-11-08T04:21:06.793Z,199.73
2022-11-08T04:23:36.126Z,202.23
2022-11-08T04:26:07.543Z,201.27
2022-11-08T04:28:37.200Z,204.87
2022-11-08T04:31:08.400Z,199.27
2022-11-08T04:33:35.556Z,200.37
2022-11-08T04:36:07.082Z,201.17
2022-11-08T04:38:34.198Z,196.17
2022-11-08T04:41:03.934Z,194.47
2022-11-08T04:43:31.601Z,208.90
2022-11-08T04:46:08.150Z,203.20
2022-11-08T04:48:35.586Z,198.10
2022-11-08T04:51:08.726Z,198.13
2022-11-08T04:53:35.646Z,205.87
2022-11-08T04:56:05.941Z,198.03
2022-11-08T04:58:36.096Z,197.30
2022-11-08T05:01:04.575Z,212.37
2022-11-08T05:03:32.123Z,196.13
2022-11-08T05:06:10.339Z,202.23
2022-11-08T05:08:37.387Z,208.30
2022-11-08T05:11:13.259Z,196.90
2022-11-08T05:13:40.475Z,199.17
2022-11-08T05:16:13.269Z,196.90
2022-11-08T05:18:41.960Z,196.27
2022-11-08T05:21:30.695Z,194.23
2022-11-08T05:23:57.986Z,204.13
2022-11-08T05:26:25.307Z,200.17
2022-11-08T05:28:52.181Z,195.57
2022-11-08T05:31:19.122Z,200.80
2022-11-08T05:33:46.632Z,199.43
2022-11-08T05:36:15.715Z,204.87
2022-11-08T05:38:43.742Z,200.90
2022-11-08T05:41:17.580Z,213.60
2022-11-08T05:43:50.650Z,197.83
2022-11-08T05:46:19.370Z,198.40
2022-11-08T05:48:47.233Z,200.47
2022-11-08T05:51:17.484Z,195.17
2022-11-08T05:53:44.462Z,201.40
2022-11-08T05:56:11.339Z,197.77
2022-11-08T05:58:38.642Z,200.83
2022-11-08T06:01:09.187Z,198.23
2022-11-08T06:03:36.819Z,201.53
2022-11-08T06:06:08.229Z,195.20
2022-11-08T06:08:35.689Z,201.67
2022-11-08T06:11:15.287Z,197.00
2022-11-08T06:13:43.214Z,203.30
2022-11-08T06:16:13.904Z,233.53
2022-11-08T06:18:41.871Z,196.37
2022-11-08T06:21:12.728Z,204.50
2022-11-08T06:23:40.511Z,207.83
2022-11-08T06:26:08.301Z,198.73
2022-11-08T06:28:36.305Z,196.97
2022-11-08T06:31:04.720Z,211.47
2022-11-08T06:33:32.260Z,197.43
2022-11-08T06:35:59.532Z,203.37
2022-11-08T06:38:26.885Z,210.80
2022-11-08T06:40:53.967Z,205.63
2022-11-08T06:43:21.367Z,202.13
2022-11-08T06:45:48.707Z,206.87
2022-11-08T06:48:16.215Z,196.37
2022-11-08T06:50:43.911Z,211.87
2022-11-08T06:53:14.945Z,197.33
2022-11-08T06:55:42.301Z,195.67
2022-11-08T06:58:10.946Z,216.90
2022-11-08T07:00:38.645Z,200.70
2022-11-08T07:03:05.741Z,199.73
2022-11-08T07:05:35.055Z,205.33
2022-11-08T07:08:04.099Z,206.50
2022-11-08T07:10:33.172Z,197.10
2022-11-08T07:13:08.318Z,194.17
2022-11-08T07:15:39.256Z,200.47
2022-11-08T07:18:10.429Z,191.10
2022-11-08T07:20:38.291Z,199.43
2022-11-08T07:23:05.676Z,209.20
2022-11-08T07:25:33.437Z,202.13
2022-11-08T07:28:06.555Z,192.93
2022-11-08T07:30:37.817Z,200.03
2022-11-08T07:33:05.139Z,202.90
2022-11-08T07:35:32.089Z,191.93
2022-11-08T07:38:02.054Z,203.30
2022-11-08T07:40:29.034Z,202.73
2022-11-08T07:43:14.979Z,197.77
2022-11-08T07:45:43.744Z,206.73
2022-11-08T07:48:13.550Z,198.00
2022-11-08T07:50:42.960Z,209.47
2022-11-08T07:53:10.888Z,200.67
2022-11-08T07:55:39.583Z,225.93
2022-11-08T07:58:08.238Z,197.33
2022-11-08T08:00:37.996Z,196.10
2022-11-08T08:03:06.968Z,211.40
2022-11-08T08:05:37.998Z,207.07
2022-11-08T08:08:05.719Z,200.07
2022-11-08T08:10:33.513Z,204.23
2022-11-08T08:13:01.342Z,201.80
2022-11-08T08:15:28.289Z,201.43
2022-11-08T08:17:55.249Z,197.47
2022-11-08T08:20:22.194Z,201.00
2022-11-08T08:22:51.148Z,202.27
2022-11-08T08:25:19.265Z,216.73
2022-11-08T08:27:51.509Z,206.33
2022-11-08T08:30:19.556Z,199.77
2022-11-08T08:32:57.646Z,198.53
2022-11-08T08:35:29.864Z,197.50
2022-11-08T08:38:01.455Z,208.60
2022-11-08T08:40:28.607Z,200.00
2022-11-08T08:42:58.451Z,197.20
2022-11-08T08:45:26.877Z,201.17
2022-11-08T08:47:55.927Z,190.93
2022-11-08T08:50:24.257Z,199.90
2022-11-08T08:52:51.340Z,200.33
2022-11-08T08:55:18.566Z,204.87
2022-11-08T08:57:47.208Z,199.30
2022-11-08T09:03:08.342Z,204.27
2022-11-08T09:05:36.267Z,202.43
2022-11-08T09:08:03.721Z,211.13
2022-11-08T09:10:30.772Z,201.77
2022-11-08T09:12:57.674Z,204.20
2022-11-08T09:15:24.686Z,201.43
2022-11-08T09:17:54.597Z,198.97
2022-11-08T09:20:22.392Z,198.23
2022-11-08T09:22:49.512Z,207.07
2022-11-08T09:25:16.382Z,202.20
2022-11-08T09:27:43.316Z,202.63
2022-11-08T09:30:10.645Z,205.73
2022-11-08T09:32:59.810Z,206.67
2022-11-08T09:35:24.798Z,213.03
2022-11-08T09:37:54.771Z,213.33
2022-11-08T09:40:39.078Z,219.53
2022-11-08T09:43:37.278Z,202.57
2022-11-08T09:46:04.231Z,216.27
2022-11-08T09:48:42.440Z,212.63
2022-11-08T09:51:23.587Z,208.90
2022-11-08T09:53:58.819Z,209.50
2022-11-08T09:56:31.337Z,206.83
2022-11-08T09:59:18.080Z,218.77
2022-11-08T10:01:45.087Z,208.30
2022-11-08T10:04:19.523Z,218.30
2022-11-08T10:07:31.224Z,220.43
2022-11-08T10:10:55.347Z,214.10
2022-11-08T10:13:48.159Z,218.13
2022-11-08T10:16:45.317Z,225.00
2022-11-08T10:20:16.434Z,214.27
2022-11-08T10:23:07.628Z,221.67
2022-11-08T10:25:42.553Z,219.87
2022-11-08T10:28:22.886Z,214.37
2022-11-08T10:30:53.605Z,212.23
2022-11-08T10:33:45.990Z,212.23
2022-11-08T10:36:40.057Z,204.00
2022-11-08T10:39:09.760Z,216.77
2022-11-08T10:41:49.665Z,206.47
2022-11-08T10:44:22.560Z,210.87
2022-11-08T10:46:58.263Z,210.80
2022-11-08T10:49:31.064Z,208.53
2022-11-08T10:52:17.475Z,210.83
2022-11-08T10:54:57.246Z,213.10
2022-11-08T10:57:32.902Z,208.63
2022-11-08T11:00:22.014Z,204.07
2022-11-08T11:02:57.943Z,209.93
2022-11-08T11:05:31.154Z,205.45
2022-11-08T11:08:08.113Z,208.82
2022-11-08T11:10:42.559Z,219.20
2022-11-08T11:16:05.114Z,208.33
2022-11-08T11:18:37.299Z,205.90
2022-11-08T11:21:16.058Z,207.13
2022-11-08T11:23:54.324Z,205.43
2022-11-08T11:26:30.081Z,208.20
2022-11-08T11:29:15.559Z,219.23
2022-11-08T11:31:46.862Z,208.17
2022-11-08T11:34:19.775Z,215.52
2022-11-08T11:37:17.299Z,203.00
2022-11-08T11:40:07.477Z,224.88
2022-11-08T11:43:09.722Z,203.23
2022-11-08T11:46:00.431Z,204.95
2022-11-08T11:48:35.987Z,209.97
2022-11-08T11:51:02.969Z,202.27
2022-11-08T11:53:38.787Z,207.43
2022-11-08T11:56:32.945Z,206.93
2022-11-08T11:59:34.194Z,201.23
2022-11-08T12:02:39.724Z,203.55
2022-11-08T12:05:29.998Z,207.63
2022-11-08T12:08:41.329Z,212.10
2022-11-08T12:11:35.236Z,207.75
2022-11-08T12:14:13.628Z,202.45
2022-11-08T12:17:22.198Z,207.20
2022-11-08T12:20:27.115Z,203.98
2022-11-08T12:23:16.743Z,198.68
2022-11-08T12:26:11.366Z,204.40
2022-11-08T12:28:53.861Z,205.67
2022-11-08T12:31:27.075Z,213.13
2022-11-08T12:34:41.388Z,203.90
2022-11-08T12:37:33.010Z,206.85
2022-11-08T12:40:04.053Z,208.63
2022-11-08T12:43:24.102Z,199.77
2022-11-08T12:46:18.192Z,203.63
2022-11-08T12:49:08.156Z,203.33
2022-11-08T12:52:07.380Z,210.35
2022-11-08T12:54:46.585Z,212.30
2022-11-08T12:57:17.275Z,210.73
2022-11-08T12:59:49.100Z,206.57
2022-11-08T13:02:40.360Z,213.00
2022-11-08T13:05:20.342Z,211.73
2022-11-08T13:07:51.715Z,213.43
2022-11-08T13:10:31.226Z,209.97
2022-11-08T13:13:33.758Z,213.32
2022-11-08T13:16:12.414Z,206.35
2022-11-08T13:18:49.426Z,203.15
2022-11-08T13:21:28.700Z,207.77
2022-11-08T13:24:43.400Z,213.68
2022-11-08T13:27:40.892Z,207.40
2022-11-08T13:30:29.179Z,203.68
2022-11-08T13:33:15.520Z,204.50
2022-11-08T13:36:08.754Z,205.23
2022-11-08T13:38:47.954Z,202.43
2022-11-08T13:41:22.797Z,209.27
2022-11-08T13:43:51.282Z,207.40
2022-11-08T13:46:22.861Z,208.33
2022-11-08T13:49:03.346Z,207.23
2022-11-08T13:51:32.917Z,202.30
2022-11-08T13:54:23.290Z,208.37
2022-11-08T13:56:51.088Z,201.10
2022-11-08T13:59:30.236Z,207.53
2022-11-08T14:02:05.887Z,209.23
2022-11-08T14:04:40.732Z,207.23
2022-11-08T14:07:48.244Z,210.53
2022-11-08T14:10:27.114Z,212.50
2022-11-08T14:13:07.682Z,206.20
2022-11-08T14:15:47.395Z,213.57
2022-11-08T14:18:30.409Z,209.00
2022-11-08T14:20:57.443Z,209.33
2022-11-08T14:23:39.279Z,205.03
2022-11-08T14:26:18.437Z,210.67
2022-11-08T14:28:47.750Z,212.17
2022-11-08T14:31:30.809Z,215.50
2022-11-08T14:33:58.989Z,214.53
2022-11-08T14:36:28.414Z,204.10
2022-11-08T14:39:15.692Z,210.80
2022-11-08T14:41:48.453Z,204.60
2022-11-08T14:44:18.832Z,216.33
2022-11-08T14:46:46.189Z,216.23
2022-11-08T14:49:36.475Z,202.93
2022-11-08T14:52:22.772Z,210.10
2022-11-08T14:55:11.203Z,210.20
2022-11-08T14:57:43.053Z,220.13
2022-11-08T15:00:12.874Z,203.83
2022-11-08T15:02:42.572Z,206.27
2022-11-08T15:05:47.237Z,209.00
2022-11-08T15:08:35.630Z,214.23
2022-11-08T15:11:12.290Z,209.70
2022-11-08T15:13:43.153Z,204.93
2022-11-08T15:16:11.192Z,202.60
2022-11-08T15:18:45.514Z,226.52
2022-11-08T15:21:12.362Z,214.60
2022-11-08T15:23:53.256Z,212.57
2022-11-08T15:26:32.290Z,214.90
2022-11-08T15:29:14.244Z,217.67
2022-11-08T15:31:54.551Z,210.70
2022-11-08T15:34:40.675Z,217.17
2022-11-08T15:37:34.625Z,211.83
2022-11-08T15:40:28.366Z,213.13
2022-11-08T15:42:55.379Z,213.17
2022-11-08T15:45:26.884Z,216.93
2022-11-08T15:48:00.610Z,221.80
2022-11-08T15:50:31.007Z,224.03
2022-11-08T15:53:03.457Z,223.97
2022-11-08T15:55:36.869Z,226.30
2022-11-08T15:58:04.802Z,215.73
2022-11-08T16:00:36.292Z,229.07
2022-11-08T16:03:03.360Z,216.47
2022-11-08T16:05:34.373Z,231.43
2022-11-08T16:08:01.313Z,231.60
2022-11-08T16:10:41.386Z,220.10
2022-11-08T16:13:31.248Z,220.43
2022-11-08T16:15:59.159Z,225.90
2022-11-08T16:18:27.058Z,221.40
2022-11-08T16:20:54.041Z,229.10
2022-11-08T16:23:20.969Z,261.77
2022-11-08T16:25:53.156Z,245.13
2022-11-08T16:28:38.040Z,235.77
2022-11-08T16:31:14.173Z,226.47
2022-11-08T16:33:44.634Z,218.10
2022-11-08T16:36:23.870Z,224.73
2022-11-08T16:38:54.422Z,213.63
2022-11-08T16:41:31.670Z,221.17
2022-11-08T16:44:08.928Z,215.40
2022-11-08T16:46:36.249Z,230.90
2022-11-08T16:49:06.125Z,217.20
2022-11-08T16:51:33.858Z,232.27
2022-11-08T16:54:03.030Z,222.17
2022-11-08T16:56:30.161Z,223.20
2022-11-08T16:58:57.061Z,221.70
2022-11-08T17:01:31.705Z,223.60
2022-11-08T17:03:58.734Z,229.93
2022-11-08T17:06:25.726Z,222.77
2022-11-08T17:08:52.800Z,240.63
2022-11-08T17:11:24.033Z,236.57
2022-11-08T17:13:52.841Z,243.63
2022-11-08T17:16:20.391Z,235.07
2022-11-08T17:18:52.517Z,231.17
2022-11-08T17:24:08.110Z,223.90
2022-11-08T17:26:35.000Z,224.03
2022-11-08T17:29:01.927Z,235.03
2022-11-08T17:31:28.885Z,230.83
2022-11-08T17:33:56.044Z,228.17
2022-11-08T17:36:23.282Z,222.60
2022-11-08T17:38:50.197Z,216.47
2022-11-08T17:41:17.547Z,238.90
2022-11-08T17:43:44.731Z,228.73
2022-11-08T17:46:12.306Z,230.20
2022-11-08T17:48:40.401Z,229.03
2022-11-08T17:51:07.976Z,240.60
2022-11-08T17:53:35.711Z,233.10
2022-11-08T17:56:06.045Z,232.57
2022-11-08T17:58:34.191Z,239.43
2022-11-08T18:01:04.718Z,235.37
2022-11-08T18:03:33.213Z,231.90
2022-11-08T18:06:07.292Z,233.30
2022-11-08T18:08:37.046Z,254.53
2022-11-08T18:11:05.098Z,244.27
2022-11-08T18:13:32.546Z,243.10
2022-11-08T18:16:08.344Z,262.43
2022-11-08T18:18:35.513Z,248.27
2022-11-08T18:21:02.597Z,241.67
2022-11-08T18:23:30.013Z,269.20
2022-11-08T18:25:56.966Z,252.37
2022-11-08T18:28:24.697Z,308.60
2022-11-08T18:30:52.079Z,252.27
2022-11-08T18:33:20.568Z,255.70
2022-11-08T18:35:48.287Z,248.23
2022-11-08T18:38:15.371Z,261.43
2022-11-08T18:40:45.768Z,250.37
2022-11-08T18:43:13.061Z,240.50
2022-11-08T18:45:40.026Z,247.53
2022-11-08T18:48:06.994Z,240.90
2022-11-08T18:50:35.364Z,252.60
2022-11-08T18:53:03.861Z,254.53
2022-11-08T18:55:31.806Z,248.63
2022-11-08T18:58:01.766Z,247.07
2022-11-08T19:00:28.750Z,255.77
2022-11-08T19:02:55.759Z,252.83
2022-11-08T19:05:23.530Z,259.30
2022-11-08T19:07:50.827Z,256.33
2022-11-08T19:10:17.903Z,257.67
2022-11-08T19:12:44.836Z,264.33
2022-11-08T19:15:11.931Z,255.23
2022-11-08T19:17:38.902Z,257.17
2022-11-08T19:20:06.695Z,256.97
2022-11-08T19:22:33.663Z,260.43
2022-11-08T19:25:00.558Z,234.47
2022-11-08T19:27:27.434Z,247.10
2022-11-08T19:29:54.396Z,250.33
2022-11-08T19:32:23.232Z,249.70
2022-11-08T19:34:50.119Z,248.13
2022-11-08T19:37:17.002Z,246.03
2022-11-08T19:39:44.317Z,252.00
2022-11-08T19:42:11.712Z,268.07
2022-11-08T19:44:39.013Z,276.57
2022-11-08T19:47:05.932Z,276.03
2022-11-08T19:49:33.317Z,273.93
2022-11-08T19:52:00.767Z,263.63
2022-11-08T19:54:28.684Z,270.37
2022-11-08T19:57:04.728Z,255.50
2022-11-08T19:59:32.302Z,256.03
2022-11-08T20:02:00.011Z,256.90
2022-11-08T20:04:27.224Z,244.57
2022-11-08T20:06:54.206Z,235.67
2022-11-08T21:52:36.450Z,203.30
2022-11-08T21:55:03.612Z,214.20
2022-11-08T21:57:30.672Z,206.83
2022-11-08T21:59:57.756Z,214.27
2022-11-08T22:02:24.793Z,210.43
2022-11-08T22:04:51.812Z,203.83
2022-11-08T22:07:18.962Z,196.77
2022-11-08T22:09:47.519Z,200.40
2022-11-08T22:12:15.858Z,200.10
2022-11-08T22:14:43.015Z,201.07
2022-11-08T22:17:10.089Z,199.23
2022-11-08T22:20:36.765Z,201.23
2022-11-08T22:23:08.701Z,201.67
2022-11-08T22:25:36.033Z,201.47
2022-11-08T22:28:04.553Z,209.93
2022-11-08T22:30:31.574Z,195.00
2022-11-08T22:32:58.601Z,204.23
2022-11-08T22:35:25.819Z,198.33
2022-11-08T22:37:52.843Z,204.97
2022-11-08T22:40:19.986Z,199.63
2022-11-08T22:42:47.035Z,202.67
2022-11-08T22:45:14.074Z,199.20
2022-11-08T22:47:41.124Z,203.13
2022-11-08T22:50:08.747Z,198.43
2022-11-08T22:52:35.785Z,203.17
2022-11-08T22:55:02.898Z,200.60
2022-11-08T22:57:29.940Z,197.93
2022-11-08T22:59:56.987Z,202.80
2022-11-08T23:02:26.669Z,202.67
2022-11-08T23:04:56.099Z,200.90
2022-11-08T23:07:23.230Z,196.87
2022-11-08T23:09:50.241Z,203.37
2022-11-08T23:12:36.769Z,206.43
2022-11-08T23:15:22.913Z,202.17
2022-11-08T23:17:49.960Z,198.60
2022-11-08T23:20:35.904Z,197.23
2022-11-08T23:23:21.347Z,196.60
2022-11-08T23:25:48.554Z,196.47
2022-11-08T23:28:33.830Z,201.40
2022-11-08T23:31:21.371Z,196.77
2022-11-08T23:33:48.463Z,199.87
2022-11-08T23:36:16.001Z,197.57
2022-11-08T23:38:44.074Z,192.00
2022-11-08T23:41:29.863Z,200.50
2022-11-08T23:44:15.115Z,206.10
2022-11-08T23:46:42.148Z,201.90
2022-11-08T23:49:09.043Z,195.23
2022-11-08T23:51:35.976Z,213.17
2022-11-08T23:54:02.928Z,199.37
2022-11-08T23:56:29.863Z,204.87
2022-11-08T23:58:59.312Z,198.70
